sensor_id;sensor_type;location;lat;lon;timestamp;pressure;altitude;pressure_sealevel;temperature;humidity
77583;BME280;66726;52.388;9.986;2023-12-29T00:02:25;100011.00;;;9.35;79.22
77583;BME280;66726;52.388;9.986;2023-12-29T00:04:53;100007.69;;;9.33;78.84
77583;BME280;66726;52.388;9.986;2023-12-29T00:07:21;100004.38;;;9.31;79.26
77583;BME280;66726;52.388;9.986;2023-12-29T00:09:50;100010.50;;;9.32;78.88
77583;BME280;66726;52.388;9.986;2023-12-29T00:12:19;100007.69;;;9.33;78.48
77583;BME280;66726;52.388;9.986;2023-12-29T00:14:47;100006.19;;;9.31;78.90
77583;BME280;66726;52.388;9.986;2023-12-29T00:17:16;100004.69;;;9.28;79.20
77583;BME280;66726;52.388;9.986;2023-12-29T00:19:44;100003.03;;;9.27;79.27
77583;BME280;66726;52.388;9.986;2023-12-29T00:22:12;100003.88;;;9.28;79.16
77583;BME280;66726;52.388;9.986;2023-12-29T00:24:41;100003.53;;;9.31;78.12
77583;BME280;66726;52.388;9.986;2023-12-29T00:27:11;99996.66;;;9.28;78.73
77583;BME280;66726;52.388;9.986;2023-12-29T00:29:39;100008.19;;;9.29;79.46
77583;BME280;66726;52.388;9.986;2023-12-29T00:32:07;100005.69;;;9.27;79.89
77583;BME280;66726;52.388;9.986;2023-12-29T00:34:35;99999.69;;;9.33;78.62
77583;BME280;66726;52.388;9.986;2023-12-29T00:37:05;99995.66;;;9.29;79.23
77583;BME280;66726;52.388;9.986;2023-12-29T00:39:35;99997.84;;;9.34;79.37
77583;BME280;66726;52.388;9.986;2023-12-29T00:42:07;99993.34;;;9.34;78.11
77583;BME280;66726;52.388;9.986;2023-12-29T00:44:37;99988.66;;;9.36;77.87
77583;BME280;66726;52.388;9.986;2023-12-29T00:47:05;99973.28;;;9.38;78.59
77583;BME280;66726;52.388;9.986;2023-12-29T00:49:33;99981.97;;;9.40;77.98
77583;BME280;66726;52.388;9.986;2023-12-29T00:52:01;99975.78;;;9.40;78.01
77583;BME280;66726;52.388;9.986;2023-12-29T00:54:30;99978.63;;;9.38;78.59
77583;BME280;66726;52.388;9.986;2023-12-29T00:56:58;99978.78;;;9.45;78.24
77583;BME280;66726;52.388;9.986;2023-12-29T00:59:26;99981.63;;;9.43;78.88
77583;BME280;66726;52.388;9.986;2023-12-29T01:01:56;99957.06;;;9.48;77.44
77583;BME280;66726;52.388;9.986;2023-12-29T01:04:24;99959.91;;;9.46;78.43
77583;BME280;66726;52.388;9.986;2023-12-29T01:06:52;99961.56;;;9.47;78.11
77583;BME280;66726;52.388;9.986;2023-12-29T01:09:21;99948.56;;;9.44;79.21
77583;BME280;66726;52.388;9.986;2023-12-29T01:11:49;99949.88;;;9.48;78.87
77583;BME280;66726;52.388;9.986;2023-12-29T01:14:17;99942.19;;;9.45;79.56
77583;BME280;66726;52.388;9.986;2023-12-29T01:16:46;99957.56;;;9.51;78.92
77583;BME280;66726;52.388;9.986;2023-12-29T01:19:15;99949.53;;;9.51;79.60
77583;BME280;66726;52.388;9.986;2023-12-29T01:21:43;99955.38;;;9.47;79.71
77583;BME280;66726;52.388;9.986;2023-12-29T01:24:11;99952.56;;;9.48;79.37
77583;BME280;66726;52.388;9.986;2023-12-29T01:26:43;99954.19;;;9.49;79.21
77583;BME280;66726;52.388;9.986;2023-12-29T01:29:11;99940.84;;;9.49;79.92
77583;BME280;66726;52.388;9.986;2023-12-29T01:31:39;99950.03;;;9.47;80.97
77583;BME280;66726;52.388;9.986;2023-12-29T01:34:07;99943.88;;;9.46;82.39
77583;BME280;66726;52.388;9.986;2023-12-29T01:36:37;99944.06;;;9.45;82.23
77583;BME280;66726;52.388;9.986;2023-12-29T01:39:05;99944.06;;;9.45;81.51
77583;BME280;66726;52.388;9.986;2023-12-29T01:41:33;99940.53;;;9.44;80.92
77583;BME280;66726;52.388;9.986;2023-12-29T01:44:21;99945.56;;;9.39;82.64
77583;BME280;66726;52.388;9.986;2023-12-29T01:46:51;99927.69;;;9.40;82.50
77583;BME280;66726;52.388;9.986;2023-12-29T01:49:22;99940.53;;;9.44;81.02
77583;BME280;66726;52.388;9.986;2023-12-29T01:51:57;99941.38;;;9.45;81.52
77583;BME280;66726;52.388;9.986;2023-12-29T01:54:29;99939.19;;;9.48;81.75
77583;BME280;66726;52.388;9.986;2023-12-29T01:57:01;99936.84;;;9.45;82.59
77583;BME280;66726;52.388;9.986;2023-12-29T01:59:31;99924.50;;;9.44;81.84
77583;BME280;66726;52.388;9.986;2023-12-29T02:01:59;99919.81;;;9.46;82.13
77583;BME280;66726;52.388;9.986;2023-12-29T02:04:29;99926.16;;;9.45;83.21
77583;BME280;66726;52.388;9.986;2023-12-29T02:06:59;99920.16;;;9.43;84.27
77583;BME280;66726;52.388;9.986;2023-12-29T02:09:28;99917.19;;;9.38;85.28
77583;BME280;66726;52.388;9.986;2023-12-29T02:11:56;99917.34;;;9.37;85.22
77583;BME280;66726;52.388;9.986;2023-12-29T02:14:24;99905.84;;;9.36;85.90
77583;BME280;66726;52.388;9.986;2023-12-29T02:17:01;99902.50;;;9.34;85.43
77583;BME280;66726;52.388;9.986;2023-12-29T02:19:39;99892.81;;;9.33;86.36
77583;BME280;66726;52.388;9.986;2023-12-29T02:22:10;99885.81;;;9.32;85.91
77583;BME280;66726;52.388;9.986;2023-12-29T02:24:39;99899.50;;;9.29;87.93
77583;BME280;66726;52.388;9.986;2023-12-29T02:27:29;99884.66;;;9.27;87.37
77583;BME280;66726;52.388;9.986;2023-12-29T02:30:10;99887.34;;;9.27;87.55
77583;BME280;66726;52.388;9.986;2023-12-29T02:32:42;99877.66;;;9.26;87.58
77583;BME280;66726;52.388;9.986;2023-12-29T02:35:14;99872.16;;;9.27;87.52
77583;BME280;66726;52.388;9.986;2023-12-29T02:37:43;99885.16;;;9.30;87.27
77583;BME280;66726;52.388;9.986;2023-12-29T02:40:12;99872.44;;;9.32;87.28
77583;BME280;66726;52.388;9.986;2023-12-29T02:42:46;99871.47;;;9.33;87.65
77583;BME280;66726;52.388;9.986;2023-12-29T02:45:15;99858.09;;;9.33;87.55
77583;BME280;66726;52.388;9.986;2023-12-29T02:47:44;99864.75;;;9.37;87.79
77583;BME280;66726;52.388;9.986;2023-12-29T02:50:12;99853.38;;;9.43;86.76
77583;BME280;66726;52.388;9.986;2023-12-29T02:52:40;99854.56;;;9.41;87.24
77583;BME280;66726;52.388;9.986;2023-12-29T02:55:08;99865.41;;;9.39;88.53
77583;BME280;66726;52.388;9.986;2023-12-29T02:57:37;99853.25;;;9.37;88.38
77583;BME280;66726;52.388;9.986;2023-12-29T03:00:07;99848.06;;;9.35;88.23
77583;BME280;66726;52.388;9.986;2023-12-29T03:02:36;99841.91;;;9.35;88.70
77583;BME280;66726;52.388;9.986;2023-12-29T03:05:05;99847.75;;;9.38;88.73
77583;BME280;66726;52.388;9.986;2023-12-29T03:07:35;99850.41;;;9.38;88.75
77583;BME280;66726;52.388;9.986;2023-12-29T03:10:04;99845.72;;;9.40;88.51
77583;BME280;66726;52.388;9.986;2023-12-29T03:12:32;99844.03;;;9.39;88.86
77583;BME280;66726;52.388;9.986;2023-12-29T03:15:00;99838.66;;;9.47;88.54
77583;BME280;66726;52.388;9.986;2023-12-29T03:17:30;99836.63;;;9.49;89.02
77583;BME280;66726;52.388;9.986;2023-12-29T03:19:59;99833.81;;;9.51;89.24
77583;BME280;66726;52.388;9.986;2023-12-29T03:22:27;99841.00;;;9.50;88.82
77583;BME280;66726;52.388;9.986;2023-12-29T03:24:56;99849.00;;;9.50;89.90
77583;BME280;66726;52.388;9.986;2023-12-29T03:27:24;99838.31;;;9.50;89.68
77583;BME280;66726;52.388;9.986;2023-12-29T03:29:52;99831.28;;;9.49;90.30
77583;BME280;66726;52.388;9.986;2023-12-29T03:32:20;99820.97;;;9.46;90.18
77583;BME280;66726;52.388;9.986;2023-12-29T03:34:50;99811.28;;;9.45;90.57
77583;BME280;66726;52.388;9.986;2023-12-29T03:37:18;99827.97;;;9.47;90.11
77583;BME280;66726;52.388;9.986;2023-12-29T03:39:46;99838.31;;;9.50;89.87
77583;BME280;66726;52.388;9.986;2023-12-29T03:42:14;99814.25;;;9.50;89.50
77583;BME280;66726;52.388;9.986;2023-12-29T03:44:42;99819.44;;;9.52;89.45
77583;BME280;66726;52.388;9.986;2023-12-29T03:47:11;99817.59;;;9.52;89.35
77583;BME280;66726;52.388;9.986;2023-12-29T03:49:39;99812.25;;;9.52;89.08
77583;BME280;66726;52.388;9.986;2023-12-29T03:52:08;99819.94;;;9.55;87.85
77583;BME280;66726;52.388;9.986;2023-12-29T03:54:36;99818.25;;;9.54;88.38
77583;BME280;66726;52.388;9.986;2023-12-29T03:57:05;99814.22;;;9.58;87.24
77583;BME280;66726;52.388;9.986;2023-12-29T03:59:36;99827.53;;;9.66;85.30
77583;BME280;66726;52.388;9.986;2023-12-29T04:02:05;99825.66;;;9.75;84.07
77583;BME280;66726;52.388;9.986;2023-12-29T04:04:37;99802.75;;;9.73;84.59
77583;BME280;66726;52.388;9.986;2023-12-29T04:07:05;99804.50;;;9.65;86.21
77583;BME280;66726;52.388;9.986;2023-12-29T04:09:35;99803.19;;;9.61;86.79
77583;BME280;66726;52.388;9.986;2023-12-29T04:12:04;99808.88;;;9.58;87.80
77583;BME280;66726;52.388;9.986;2023-12-29T04:14:32;99832.13;;;9.50;90.27
77583;BME280;66726;52.388;9.986;2023-12-29T04:17:00;99819.66;;;9.42;91.75
77583;BME280;66726;52.388;9.986;2023-12-29T04:19:30;99802.31;;;9.38;92.02
77583;BME280;66726;52.388;9.986;2023-12-29T04:21:58;99762.41;;;9.37;92.33
77583;BME280;66726;52.388;9.986;2023-12-29T04:24:26;99762.78;;;9.34;92.88
77583;BME280;66726;52.388;9.986;2023-12-29T04:26:56;99772.63;;;9.33;92.46
77583;BME280;66726;52.388;9.986;2023-12-29T04:29:24;99778.97;;;9.32;92.94
77583;BME280;66726;52.388;9.986;2023-12-29T04:31:53;99783.66;;;9.30;93.52
77583;BME280;66726;52.388;9.986;2023-12-29T04:34:21;99801.69;;;9.28;93.58
77583;BME280;66726;52.388;9.986;2023-12-29T04:36:49;99797.66;;;9.32;92.89
77583;BME280;66726;52.388;9.986;2023-12-29T04:39:18;99814.88;;;9.30;93.38
77583;BME280;66726;52.388;9.986;2023-12-29T04:41:46;99800.16;;;9.34;92.58
77583;BME280;66726;52.388;9.986;2023-12-29T04:44:15;99794.00;;;9.33;92.87
77583;BME280;66726;52.388;9.986;2023-12-29T04:46:43;99794.34;;;9.30;92.78
77583;BME280;66726;52.388;9.986;2023-12-29T04:49:14;99802.72;;;9.27;93.66
77583;BME280;66726;52.388;9.986;2023-12-29T04:51:42;99803.06;;;9.24;94.42
77583;BME280;66726;52.388;9.986;2023-12-29T04:54:11;99803.06;;;9.24;94.03
77583;BME280;66726;52.388;9.986;2023-12-29T04:56:39;99797.03;;;9.22;94.36
77583;BME280;66726;52.388;9.986;2023-12-29T04:59:07;99795.41;;;9.21;94.26
77583;BME280;66726;52.388;9.986;2023-12-29T05:01:36;99797.41;;;9.19;94.26
77583;BME280;66726;52.388;9.986;2023-12-29T05:04:04;99807.09;;;9.20;93.42
77583;BME280;66726;52.388;9.986;2023-12-29T05:06:33;99797.03;;;9.22;93.24
77583;BME280;66726;52.388;9.986;2023-12-29T05:09:01;99807.72;;;9.22;94.86
77583;BME280;66726;52.388;9.986;2023-12-29T05:11:30;99801.06;;;9.18;96.92
77583;BME280;66726;52.388;9.986;2023-12-29T05:13:59;99815.44;;;9.17;96.52
77583;BME280;66726;52.388;9.986;2023-12-29T05:16:27;99819.94;;;9.16;96.42
77583;BME280;66726;52.388;9.986;2023-12-29T05:18:56;99817.63;;;9.13;97.21
77583;BME280;66726;52.388;9.986;2023-12-29T05:21:25;99817.78;;;9.12;97.46
77583;BME280;66726;52.388;9.986;2023-12-29T05:23:53;99823.97;;;9.12;98.27
77583;BME280;66726;52.388;9.986;2023-12-29T05:26:21;99819.81;;;9.10;99.61
77583;BME280;66726;52.388;9.986;2023-12-29T05:28:50;99823.47;;;9.09;100.00
77583;BME280;66726;52.388;9.986;2023-12-29T05:31:18;99823.47;;;9.09;100.00
77583;BME280;66726;52.388;9.986;2023-12-29T05:33:46;99813.16;;;9.06;100.00
77583;BME280;66726;52.388;9.986;2023-12-29T05:36:16;99827.84;;;9.02;100.00
77583;BME280;66726;52.388;9.986;2023-12-29T05:38:46;99809.34;;;9.00;100.00
77583;BME280;66726;52.388;9.986;2023-12-29T05:41:14;99819.19;;;9.00;100.00
77583;BME280;66726;52.388;9.986;2023-12-29T05:43:42;99812.16;;;8.99;100.00
77583;BME280;66726;52.388;9.986;2023-12-29T05:46:11;99818.34;;;8.99;100.00
77583;BME280;66726;52.388;9.986;2023-12-29T05:48:40;99815.84;;;8.98;100.00
77583;BME280;66726;52.388;9.986;2023-12-29T05:51:09;99806.84;;;8.99;100.00
77583;BME280;66726;52.388;9.986;2023-12-29T05:53:40;99802.81;;;9.03;100.00
77583;BME280;66726;52.388;9.986;2023-12-29T05:56:08;99809.16;;;9.02;100.00
77583;BME280;66726;52.388;9.986;2023-12-29T05:58:37;99812.81;;;9.01;100.00
77583;BME280;66726;52.388;9.986;2023-12-29T06:01:05;99798.66;;;9.00;100.00
77583;BME280;66726;52.388;9.986;2023-12-29T06:03:33;99798.81;;;8.99;100.00
77583;BME280;66726;52.388;9.986;2023-12-29T06:06:01;99815.84;;;8.98;100.00
77583;BME280;66726;52.388;9.986;2023-12-29T06:08:30;99798.81;;;8.99;100.00
77583;BME280;66726;52.388;9.986;2023-12-29T06:10:59;99804.16;;;8.99;100.00
77583;BME280;66726;52.388;9.986;2023-12-29T06:13:28;99802.34;;;8.99;100.00
77583;BME280;66726;52.388;9.986;2023-12-29T06:15:57;99810.34;;;8.99;100.00
77583;BME280;66726;52.388;9.986;2023-12-29T06:18:25;99820.81;;;9.01;100.00
77583;BME280;66726;52.388;9.986;2023-12-29T06:20:53;99811.19;;;9.00;100.00
77583;BME280;66726;52.388;9.986;2023-12-29T06:23:21;99821.84;;;9.00;100.00
77583;BME280;66726;52.388;9.986;2023-12-29T06:25:50;99818.00;;;9.02;100.00
77583;BME280;66726;52.388;9.986;2023-12-29T06:28:19;99812.50;;;9.04;100.00
77583;BME280;66726;52.388;9.986;2023-12-29T06:30:47;99821.19;;;8.98;100.00
77583;BME280;66726;52.388;9.986;2023-12-29T06:33:16;99825.53;;;8.91;100.00
77583;BME280;66726;52.388;9.986;2023-12-29T06:35:47;99827.91;;;8.86;100.00
77583;BME280;66726;52.388;9.986;2023-12-29T06:38:16;99829.91;;;8.84;100.00
77583;BME280;66726;52.388;9.986;2023-12-29T06:40:44;99835.56;;;8.81;100.00
77583;BME280;66726;52.388;9.986;2023-12-29T06:43:12;99829.09;;;8.75;100.00
77583;BME280;66726;52.388;9.986;2023-12-29T06:45:42;99829.25;;;8.74;100.00
77583;BME280;66726;52.388;9.986;2023-12-29T06:48:10;99822.63;;;8.70;100.00
77583;BME280;66726;52.388;9.986;2023-12-29T06:50:38;99814.44;;;8.71;100.00
77583;BME280;66726;52.388;9.986;2023-12-29T06:53:07;99815.59;;;8.69;100.00
77583;BME280;66726;52.388;9.986;2023-12-29T06:55:35;99814.44;;;8.71;100.00
77583;BME280;66726;52.388;9.986;2023-12-29T06:58:04;99812.59;;;8.72;100.00
77583;BME280;66726;52.388;9.986;2023-12-29T07:00:32;99816.25;;;8.71;100.00
77583;BME280;66726;52.388;9.986;2023-12-29T07:03:03;99815.25;;;8.72;100.00
77583;BME280;66726;52.388;9.986;2023-12-29T07:05:31;99822.28;;;8.73;100.00
77583;BME280;66726;52.388;9.986;2023-12-29T07:08:00;99829.09;;;8.75;100.00
77583;BME280;66726;52.388;9.986;2023-12-29T07:10:28;99818.91;;;8.79;100.00
77583;BME280;66726;52.388;9.986;2023-12-29T07:12:57;99831.91;;;8.82;100.00
77583;BME280;66726;52.388;9.986;2023-12-29T07:15:25;99831.56;;;8.85;100.00
77583;BME280;66726;52.388;9.986;2023-12-29T07:17:53;99832.06;;;8.88;100.00
77583;BME280;66726;52.388;9.986;2023-12-29T07:20:23;99836.22;;;8.91;100.00
77583;BME280;66726;52.388;9.986;2023-12-29T07:22:51;99830.72;;;8.92;100.00
77583;BME280;66726;52.388;9.986;2023-12-29T07:25:20;99837.88;;;8.92;100.00
77583;BME280;66726;52.388;9.986;2023-12-29T07:27:48;99831.38;;;8.94;100.00
77583;BME280;66726;52.388;9.986;2023-12-29T07:30:17;99835.56;;;8.97;100.00
77583;BME280;66726;52.388;9.986;2023-12-29T07:32:45;99835.56;;;8.97;100.00
77583;BME280;66726;52.388;9.986;2023-12-29T07:35:13;99838.03;;;8.98;100.00
77583;BME280;66726;52.388;9.986;2023-12-29T07:37:48;99838.88;;;8.99;100.00
77583;BME280;66726;52.388;9.986;2023-12-29T07:40:16;99829.88;;;9.00;100.00
77583;BME280;66726;52.388;9.986;2023-12-29T07:42:45;99833.53;;;8.99;100.00
77583;BME280;66726;52.388;9.986;2023-12-29T07:45:17;99830.00;;;9.06;100.00
77583;BME280;66726;52.388;9.986;2023-12-29T07:47:45;99835.50;;;9.05;100.00
77583;BME280;66726;52.388;9.986;2023-12-29T07:50:13;99844.00;;;9.08;100.00
77583;BME280;66726;52.388;9.986;2023-12-29T07:52:42;99849.19;;;9.10;100.00
77583;BME280;66726;52.388;9.986;2023-12-29T07:55:12;99845.69;;;9.09;100.00
77583;BME280;66726;52.388;9.986;2023-12-29T07:57:43;99863.88;;;9.14;100.00
77583;BME280;66726;52.388;9.986;2023-12-29T08:00:15;99857.19;;;9.10;100.00
77583;BME280;66726;52.388;9.986;2023-12-29T08:02:43;99861.50;;;9.11;100.00
77583;BME280;66726;52.388;9.986;2023-12-29T08:05:12;99863.88;;;9.14;100.00
77583;BME280;66726;52.388;9.986;2023-12-29T08:07:41;99859.81;;;9.18;100.00
77583;BME280;66726;52.388;9.986;2023-12-29T08:10:11;99868.84;;;9.17;100.00
77583;BME280;66726;52.388;9.986;2023-12-29T08:12:39;99868.66;;;9.18;100.00
77583;BME280;66726;52.388;9.986;2023-12-29T08:15:08;99864.84;;;9.21;100.00
77583;BME280;66726;52.388;9.986;2023-12-29T08:17:36;99863.16;;;9.20;100.00
77583;BME280;66726;52.388;9.986;2023-12-29T08:20:07;99873.16;;;9.26;100.00
77583;BME280;66726;52.388;9.986;2023-12-29T08:22:35;99887.16;;;9.28;100.00
77583;BME280;66726;52.388;9.986;2023-12-29T08:25:05;99869.66;;;9.26;100.00
77583;BME280;66726;52.388;9.986;2023-12-29T08:27:35;99865.97;;;9.27;100.00
77583;BME280;66726;52.388;9.986;2023-12-29T08:30:04;99871.97;;;9.29;99.65
77583;BME280;66726;52.388;9.986;2023-12-29T08:32:33;99879.81;;;9.30;99.01
77583;BME280;66726;52.388;9.986;2023-12-29T08:35:01;99878.63;;;9.33;99.47
77583;BME280;66726;52.388;9.986;2023-12-29T08:37:30;99890.50;;;9.30;99.46
77583;BME280;66726;52.388;9.986;2023-12-29T08:40:00;99893.19;;;9.30;99.31
77583;BME280;66726;52.388;9.986;2023-12-29T08:42:28;99895.84;;;9.30;99.94
77583;BME280;66726;52.388;9.986;2023-12-29T08:44:59;99887.31;;;9.35;97.83
77583;BME280;66726;52.388;9.986;2023-12-29T08:47:27;99893.47;;;9.35;97.85
77583;BME280;66726;52.388;9.986;2023-12-29T08:49:55;99890.81;;;9.35;98.27
77583;BME280;66726;52.388;9.986;2023-12-29T08:52:24;99886.13;;;9.37;97.15
77583;BME280;66726;52.388;9.986;2023-12-29T08:54:52;99876.78;;;9.41;95.67
77583;BME280;66726;52.388;9.986;2023-12-29T08:57:20;99871.44;;;9.41;96.26
77583;BME280;66726;52.388;9.986;2023-12-29T08:59:48;99871.44;;;9.41;95.69
77583;BME280;66726;52.388;9.986;2023-12-29T09:02:17;99862.38;;;9.42;95.03
77583;BME280;66726;52.388;9.986;2023-12-29T09:04:46;99858.38;;;9.46;94.40
77583;BME280;66726;52.388;9.986;2023-12-29T09:07:14;99852.19;;;9.46;94.08
77583;BME280;66726;52.388;9.986;2023-12-29T09:09:42;99868.91;;;9.48;93.48
77583;BME280;66726;52.388;9.986;2023-12-29T09:12:11;99853.84;;;9.47;93.60
77583;BME280;66726;52.388;9.986;2023-12-29T09:14:39;99852.88;;;9.48;92.87
77583;BME280;66726;52.388;9.986;2023-12-29T09:17:07;99850.19;;;9.48;94.46
77583;BME280;66726;52.388;9.986;2023-12-29T09:19:37;99845.34;;;9.51;92.80
77583;BME280;66726;52.388;9.986;2023-12-29T09:22:07;99856.84;;;9.52;93.82
77583;BME280;66726;52.388;9.986;2023-12-29T09:24:35;99863.69;;;9.54;93.12
77583;BME280;66726;52.388;9.986;2023-12-29T09:27:04;99864.69;;;9.53;93.29
77583;BME280;66726;52.388;9.986;2023-12-29T09:29:32;99864.88;;;9.52;93.38
77583;BME280;66726;52.388;9.986;2023-12-29T09:32:00;99860.16;;;9.54;93.32
77583;BME280;66726;52.388;9.986;2023-12-29T09:34:29;99883.03;;;9.56;93.58
77583;BME280;66726;52.388;9.986;2023-12-29T09:36:58;99885.69;;;9.56;93.91
77583;BME280;66726;52.388;9.986;2023-12-29T09:39:26;99865.16;;;9.57;93.65
77583;BME280;66726;52.388;9.986;2023-12-29T09:41:59;99888.22;;;9.58;93.65
77583;BME280;66726;52.388;9.986;2023-12-29T09:44:28;99878.38;;;9.58;94.94
77583;BME280;66726;52.388;9.986;2023-12-29T09:47:03;99871.84;;;9.53;96.48
77583;BME280;66726;52.388;9.986;2023-12-29T09:49:40;99882.75;;;9.51;97.34
77583;BME280;66726;52.388;9.986;2023-12-29T09:52:13;99890.06;;;9.49;98.33
77583;BME280;66726;52.388;9.986;2023-12-29T09:54:44;99887.13;;;9.44;100.00
77583;BME280;66726;52.388;9.986;2023-12-29T09:57:13;99890.28;;;9.40;100.00
77583;BME280;66726;52.388;9.986;2023-12-29T09:59:42;99890.66;;;9.37;100.00
77583;BME280;66726;52.388;9.986;2023-12-29T10:02:15;99895.50;;;9.33;100.00
77583;BME280;66726;52.388;9.986;2023-12-29T10:04:43;99902.19;;;9.29;100.00
77583;BME280;66726;52.388;9.986;2023-12-29T10:07:21;99898.72;;;9.21;100.00
77583;BME280;66726;52.388;9.986;2023-12-29T10:09:56;99900.41;;;9.13;100.00
77583;BME280;66726;52.388;9.986;2023-12-29T10:12:27;99907.28;;;9.00;100.00
77583;BME280;66726;52.388;9.986;2023-12-29T10:15:05;99879.75;;;8.91;100.00
77583;BME280;66726;52.388;9.986;2023-12-29T10:17:48;99883.28;;;8.84;100.00
77583;BME280;66726;52.388;9.986;2023-12-29T10:20:35;99885.63;;;8.79;100.00
77583;BME280;66726;52.388;9.986;2023-12-29T10:23:11;99876.47;;;8.73;100.00
77583;BME280;66726;52.388;9.986;2023-12-29T10:25:41;99885.31;;;8.65;100.00
77583;BME280;66726;52.388;9.986;2023-12-29T10:28:10;99875.66;;;8.64;100.00
77583;BME280;66726;52.388;9.986;2023-12-29T10:30:38;99867.97;;;8.61;100.00
77583;BME280;66726;52.388;9.986;2023-12-29T10:33:07;99864.66;;;8.59;100.00
77583;BME280;66726;52.388;9.986;2023-12-29T10:35:36;99870.31;;;8.56;100.00
77583;BME280;66726;52.388;9.986;2023-12-29T10:38:11;99866.84;;;8.56;100.00
77583;BME280;66726;52.388;9.986;2023-12-29T10:40:41;99886.50;;;8.55;100.00
77583;BME280;66726;52.388;9.986;2023-12-29T10:43:10;99877.31;;;8.57;100.00
77583;BME280;66726;52.388;9.986;2023-12-29T10:45:38;99903.16;;;8.57;100.00
77583;BME280;66726;52.388;9.986;2023-12-29T10:48:07;99886.50;;;8.55;100.00
77583;BME280;66726;52.388;9.986;2023-12-29T10:50:43;99873.16;;;8.55;100.00
77583;BME280;66726;52.388;9.986;2023-12-29T10:53:14;99867.31;;;8.51;100.00
77583;BME280;66726;52.388;9.986;2023-12-29T10:55:44;99871.81;;;8.51;100.00
77583;BME280;66726;52.388;9.986;2023-12-29T10:58:15;99863.16;;;8.49;100.00
77583;BME280;66726;52.388;9.986;2023-12-29T11:00:44;99859.66;;;8.48;100.00
77583;BME280;66726;52.388;9.986;2023-12-29T11:03:15;99853.66;;;8.46;100.00
77583;BME280;66726;52.388;9.986;2023-12-29T11:05:44;99850.00;;;8.47;100.00
77583;BME280;66726;52.388;9.986;2023-12-29T11:08:18;99847.16;;;8.49;100.00
77583;BME280;66726;52.388;9.986;2023-12-29T11:10:49;99838.97;;;8.50;100.00
77583;BME280;66726;52.388;9.986;2023-12-29T11:13:18;99836.16;;;8.52;100.00
77583;BME280;66726;52.388;9.986;2023-12-29T11:15:47;99835.13;;;8.53;100.00
77583;BME280;66726;52.388;9.986;2023-12-29T11:18:17;99827.81;;;8.55;100.00
77583;BME280;66726;52.388;9.986;2023-12-29T11:20:46;99830.97;;;8.58;100.00
77583;BME280;66726;52.388;9.986;2023-12-29T11:23:17;99830.63;;;8.61;100.00
77583;BME280;66726;52.388;9.986;2023-12-29T11:25:45;99804.44;;;8.65;100.00
77583;BME280;66726;52.388;9.986;2023-12-29T11:28:15;99811.94;;;8.70;100.00
77583;BME280;66726;52.388;9.986;2023-12-29T11:30:44;99803.59;;;8.73;100.00
77583;BME280;66726;52.388;9.986;2023-12-29T11:33:17;99812.59;;;8.80;100.00
77583;BME280;66726;52.388;9.986;2023-12-29T11:35:52;99820.06;;;8.84;100.00
77583;BME280;66726;52.388;9.986;2023-12-29T11:38:47;99808.88;;;8.89;100.00
77583;BME280;66726;52.388;9.986;2023-12-29T11:41:24;99816.19;;;8.95;100.00
77583;BME280;66726;52.388;9.986;2023-12-29T11:43:57;99815.84;;;8.98;100.00
77583;BME280;66726;52.388;9.986;2023-12-29T11:46:36;99808.16;;;9.03;100.00
77583;BME280;66726;52.388;9.986;2023-12-29T11:49:05;99803.13;;;9.08;100.00
77583;BME280;66726;52.388;9.986;2023-12-29T11:51:36;99793.28;;;9.08;100.00
77583;BME280;66726;52.388;9.986;2023-12-29T11:54:08;99793.41;;;9.15;100.00
77583;BME280;66726;52.388;9.986;2023-12-29T11:56:38;99801.41;;;9.15;100.00
77583;BME280;66726;52.388;9.986;2023-12-29T11:59:19;99798.75;;;9.15;100.00
77583;BME280;66726;52.388;9.986;2023-12-29T12:01:49;99807.25;;;9.18;100.00
77583;BME280;66726;52.388;9.986;2023-12-29T12:04:37;99811.72;;;9.26;100.00
77583;BME280;66726;52.388;9.986;2023-12-29T12:07:13;99810.38;;;9.30;100.00
77583;BME280;66726;52.388;9.986;2023-12-29T12:09:43;99794.81;;;9.34;100.00
77583;BME280;66726;52.388;9.986;2023-12-29T12:12:12;99797.31;;;9.35;100.00
77583;BME280;66726;52.388;9.986;2023-12-29T12:14:48;99790.97;;;9.36;100.00
77583;BME280;66726;52.388;9.986;2023-12-29T12:17:31;99797.66;;;9.32;100.00
77583;BME280;66726;52.388;9.986;2023-12-29T12:20:03;99792.50;;;9.31;100.00
77583;BME280;66726;52.388;9.986;2023-12-29T12:22:32;99804.03;;;9.31;100.00
77583;BME280;66726;52.388;9.986;2023-12-29T12:25:07;99796.66;;;9.33;100.00
77583;BME280;66726;52.388;9.986;2023-12-29T12:27:38;99788.28;;;9.36;100.00
77583;BME280;66726;52.388;9.986;2023-12-29T12:30:08;99797.00;;;9.38;100.00
77583;BME280;66726;52.388;9.986;2023-12-29T12:32:38;99806.47;;;9.41;100.00
77583;BME280;66726;52.388;9.986;2023-12-29T12:35:14;99811.81;;;9.41;100.00
77583;BME280;66726;52.388;9.986;2023-12-29T12:37:46;99802.25;;;9.46;100.00
77583;BME280;66726;52.388;9.986;2023-12-29T12:40:26;99797.28;;;9.43;100.00
77583;BME280;66726;52.388;9.986;2023-12-29T12:42:55;99805.28;;;9.43;100.00
77583;BME280;66726;52.388;9.986;2023-12-29T12:45:26;99818.00;;;9.41;100.00
77583;BME280;66726;52.388;9.986;2023-12-29T12:48:02;99807.84;;;9.37;100.00
77583;BME280;66726;52.388;9.986;2023-12-29T12:50:31;99812.69;;;9.33;100.00
77583;BME280;66726;52.388;9.986;2023-12-29T12:53:01;99799.69;;;9.30;100.00
77583;BME280;66726;52.388;9.986;2023-12-29T12:55:38;99800.03;;;9.27;100.00
77583;BME280;66726;52.388;9.986;2023-12-29T12:58:06;99796.69;;;9.25;100.00
77583;BME280;66726;52.388;9.986;2023-12-29T13:00:35;99807.38;;;9.25;100.00
77583;BME280;66726;52.388;9.986;2023-12-29T13:03:04;99803.72;;;9.26;100.00
77583;BME280;66726;52.388;9.986;2023-12-29T13:05:33;99826.75;;;9.27;100.00
77583;BME280;66726;52.388;9.986;2023-12-29T13:08:04;99819.03;;;9.32;100.00
77583;BME280;66726;52.388;9.986;2023-12-29T13:10:33;99805.88;;;9.31;100.00
77583;BME280;66726;52.388;9.986;2023-12-29T13:13:03;99800.53;;;9.31;100.00
77583;BME280;66726;52.388;9.986;2023-12-29T13:15:32;99806.03;;;9.29;100.00
77583;BME280;66726;52.388;9.986;2023-12-29T13:18:00;99803.84;;;9.33;100.00
77583;BME280;66726;52.388;9.986;2023-12-29T13:20:28;99805.69;;;9.32;100.00